• Join FlightAware (Why Join?)
  • Login
  • US Flag 
06:29PM EST


 

Airport Tracker/Info


-or-


 

Live Flight TrackerFlight Track Log ✈ JBU51 ✈ 10-May-2013 ✈ KBTV - KJFK

Flight Track Log - Related Links

Times and Time Zones

All times are in EDT time to prevent confusion due to time zone crossing. See the JBU51 flight status page for this flight to view local times or setup timezone preferences in your user account.

Time Position Orientation Groundspeed Altitude Reporting Facility
EDT Latitude Longitude Course Direction KTS MPH feet Rate Location/Type
11:26AM 44.3114 -73.1131 196° South 287 330 6,400  Level Boston Center
11:27AM 44.1444 -73.2709 195° South  Level FlightAware Approximate
11:27AM 44.2447 -73.1356 194° South 291 335 9,800  Level Boston Center
11:28AM 44.0634 -73.3011 194° South  Level FlightAware Approximate
11:28AM 44.1589 -73.1722 197° South 297 342 11,400  Level Boston Center
11:29AM 43.9818 -73.3283 194° South  Level FlightAware Approximate
11:29AM 44.0672 -73.1969 191° South 330 380 13,500  Level Boston Center
11:30AM 43.9004 -73.3565 196° South  Level FlightAware Approximate
11:30AM 43.9650 -73.2017 182° South 352 405 16,400  Level Boston Center
11:31AM 43.8198 -73.3889 196° South  Level FlightAware Approximate
11:31AM 43.8628 -73.2061 182° South 366 421 18,700  Level Boston Center
11:32AM 43.7650 -73.2078 181° South 381 438 20,800 2,100 Climbing Boston Center
11:33AM 43.6422 -73.1717 168° South 397 457 22,900 1,920 Climbing Boston Center
11:34AM 43.5300 -73.1189 161° South 415 478 24,700 1,500 Climbing Boston Center
11:35AM 43.4136 -73.0631 161° South 429 494 26,300 1,380 Climbing Boston Center
11:36AM 43.2847 -73.0047 162° South 442 509 27,800 840 Climbing Boston Center
11:37AM 43.1619 -72.9467 161° South 453 521 28,000 60 Climbing Boston Center
11:38AM 43.0247 -72.9200 172° South 451 519 28,000  Level Boston Center
11:39AM 42.9139 -72.9900 205° Southwest 425 489 28,000  Level Boston Center
11:40AM 42.8197 -73.0600 209° Southwest 420 483 28,000  Level Boston Center
11:41AM 42.7108 -73.1353 207° Southwest 433 498 28,000 -240 Level Boston Center
11:42AM 42.5917 -73.2100 205° Southwest 439 505 27,600 -720 Descending Boston Center
11:43AM 42.4847 -73.2789 205° Southwest 439 505 26,600 -840 Descending Boston Center
11:44AM 42.3800 -73.3481 206° Southwest 429 494 26,000 -300 Descending Boston Center
11:45AM 42.2775 -73.4194 207° Southwest 428 493 26,000  Level Boston Center
11:46AM 42.1747 -73.4878 206° Southwest 422 486 26,000  Level Boston Center
11:47AM 42.0697 -73.5589 207° Southwest 422 486 26,000  Level Boston Center
11:48AM 41.9606 -73.6322 207° Southwest 429 494 26,000  Level Boston Center
11:50AM 41.7350 -73.8011 209° Southwest 410 472 26,000 -420 Level New York Center
11:51AM 41.6372 -73.8769 210° Southwest 415 478 24,700 -1,740 Descending New York Center
11:52AM 41.5436 -73.9475 209° Southwest 406 467 22,500 -2,100 Descending New York Center
11:53AM 41.4481 -74.0178 209° Southwest 400 460 20,500 -1,320 Descending New York Center
11:54AM 41.3586 -74.0881 211° Southwest 395 455 20,000 -300 Descending New York Center
11:55AM 41.2711 -74.1608 212° Southwest 388 447 20,000  Level New York Center
11:56AM 41.1628 -74.1664 182° South 372 428 20,000 -60 Level New York Center
11:57AM 41.0528 -74.1500 174° South 378 435 19,900 -180 Descending New York Center
11:58AM 41.0167 -74.1500 180° South 368 423 19,800 -900 Descending New York TRACON
11:59AM 40.9333 -74.1167 163° South 342 394 18,800 -1,140 Descending New York TRACON
12:00PM 40.8333 -74.0833 166° South 333 383 17,600 -1,320 Descending New York TRACON
12:01PM 40.7500 -74.0333 156° South 330 380 16,200 -1,560 Descending New York TRACON
12:02PM 40.6667 -74.0000 163° South 317 365 14,500 -1,560 Descending New York TRACON
12:03PM 40.5833 -73.9667 163° South 312 359 13,100 -720 Descending New York TRACON
12:04PM 40.5000 -73.9333 163° South 313 360 13,100  Level New York TRACON
12:05PM 40.4167 -73.9000 163° South 309 356 13,100 -780 Level New York TRACON
12:06PM 40.3500 -73.8167 136° Southeast 323 372 11,600 -1,500 Descending New York TRACON
12:07PM 40.3167 -73.7333 118° Southeast 311 358 10,200 -1,500 Descending New York TRACON
12:08PM 40.3500 -73.6333 66° East 298 343 8,700 -1,500 Descending New York TRACON
12:09PM 40.4167 -73.5833 30° Northeast 281 323 7,200 -840 Descending New York TRACON
12:10PM 40.4833 -73.5333 30° Northeast 281 323 7,100 -720 Descending New York TRACON
12:11PM 40.5950 -73.4906 16° North 259 298 5,300 -720 Descending New York Center
12:13PM 40.7000 -73.5000 356° North 255 293 5,100 -480 Descending New York TRACON
12:14PM 40.7667 -73.5167 349° North 213 245 4,300 -600 Descending New York TRACON
12:15PM 40.8167 -73.5333 346° North 229 264 4,000 -600 Descending New York TRACON
12:16PM 40.8167 -73.6167 270° West 218 251 3,100 -480 Descending New York TRACON
12:17PM 40.7833 -73.6667 229° Southwest 164 189 3,100 -300 Level New York TRACON
12:18PM 40.7500 -73.7000 217° Southwest 165 190 2,500 -600 Descending New York TRACON